createdAt,value
2022-08-10T00:01:52.271Z,15.20
2022-08-10T00:04:22.438Z,15.77
2022-08-10T00:06:52.444Z,14.90
2022-08-10T00:09:21.036Z,16.03
2022-08-10T00:11:49.452Z,15.13
2022-08-10T00:14:17.801Z,15.40
2022-08-10T00:16:47.850Z,15.70
2022-08-10T00:19:18.143Z,15.40
2022-08-10T00:21:46.913Z,15.53
2022-08-10T00:24:16.021Z,15.70
2022-08-10T00:27:51.974Z,14.93
2022-08-10T00:29:33.484Z,15.00
2022-08-10T00:32:03.374Z,15.30
2022-08-10T00:34:33.270Z,15.97
2022-08-10T00:37:01.983Z,15.97
2022-08-10T00:39:35.994Z,16.10
2022-08-10T00:42:08.292Z,15.70
2022-08-10T00:44:41.015Z,15.53
2022-08-10T00:47:35.846Z,16.10
2022-08-10T00:50:02.435Z,15.97
2022-08-10T00:52:36.242Z,15.97
2022-08-10T00:55:06.583Z,15.00
2022-08-10T00:57:36.286Z,15.40
2022-08-10T01:00:06.632Z,15.63
2022-08-10T01:02:36.768Z,16.70
2022-08-10T01:05:11.136Z,15.90
2022-08-10T01:08:12.034Z,15.27
2022-08-10T01:10:45.241Z,15.20
2022-08-10T01:13:22.224Z,15.50
2022-08-10T01:15:59.064Z,15.57
2022-08-10T01:18:38.003Z,15.30
2022-08-10T01:21:33.585Z,14.93
2022-08-10T01:24:15.346Z,15.37
2022-08-10T01:27:03.093Z,16.10
2022-08-10T01:29:57.927Z,15.20
2022-08-10T01:32:37.248Z,15.53
2022-08-10T01:35:14.256Z,15.67
2022-08-10T01:37:51.974Z,16.20
2022-08-10T01:40:25.831Z,15.43
2022-08-10T01:42:59.651Z,15.10
2022-08-10T01:45:44.927Z,16.20
2022-08-10T01:48:30.906Z,16.00
2022-08-10T01:51:09.634Z,15.50
2022-08-10T01:53:52.192Z,15.93
2022-08-10T01:56:23.635Z,15.97
2022-08-10T01:59:04.254Z,15.37
2022-08-10T02:01:39.183Z,16.00
2022-08-10T02:04:13.337Z,16.00
2022-08-10T02:06:46.573Z,15.60
2022-08-10T02:09:20.051Z,15.50
2022-08-10T02:12:05.455Z,15.90
2022-08-10T02:14:40.285Z,16.63
2022-08-10T02:17:57.749Z,15.97
2022-08-10T02:20:06.725Z,15.93
2022-08-10T02:22:39.063Z,15.90
2022-08-10T02:25:10.010Z,15.80
2022-08-10T02:27:59.197Z,15.67
2022-08-10T02:30:30.166Z,15.20
2022-08-10T02:33:00.252Z,16.00
2022-08-10T02:35:32.516Z,16.23
2022-08-10T02:38:58.326Z,17.50
2022-08-10T02:45:18.298Z,16.17
2022-08-10T02:45:26.807Z,16.70
2022-08-10T02:47:07.301Z,16.10
2022-08-10T02:49:42.978Z,16.60
2022-08-10T02:52:18.780Z,15.07
2022-08-10T02:54:52.799Z,15.53
2022-08-10T02:57:26.098Z,15.80
2022-08-10T02:59:58.775Z,16.03
2022-08-10T03:02:32.107Z,16.10
2022-08-10T03:05:06.050Z,16.00
2022-08-10T03:07:44.064Z,16.00
2022-08-10T03:10:17.323Z,15.90
2022-08-10T03:12:49.161Z,14.83
2022-08-10T03:15:20.922Z,16.00
2022-08-10T03:17:57.637Z,16.40
2022-08-10T03:20:38.373Z,15.90
2022-08-10T03:23:11.244Z,16.30
2022-08-10T03:25:40.550Z,15.63
2022-08-10T03:28:10.061Z,15.73
2022-08-10T03:30:47.640Z,16.50
2022-08-10T03:33:18.888Z,17.40
2022-08-10T03:36:41.415Z,16.33
2022-08-10T03:38:36.645Z,16.53
2022-08-10T03:41:06.599Z,16.23
2022-08-10T03:43:35.365Z,16.60
2022-08-10T03:46:09.526Z,17.10
2022-08-10T03:48:48.407Z,16.90
2022-08-10T03:51:18.632Z,18.03
2022-08-10T03:54:04.941Z,16.20
2022-08-10T03:56:37.652Z,19.00
2022-08-10T03:59:08.161Z,18.03
2022-08-10T04:02:43.489Z,17.93
2022-08-10T04:04:27.238Z,18.10
2022-08-10T04:07:00.579Z,18.87
2022-08-10T04:09:53.525Z,17.87
2022-08-10T04:12:20.067Z,18.07
2022-08-10T04:14:51.498Z,17.60
2022-08-10T04:18:01.236Z,18.00
2022-08-10T04:20:19.444Z,17.57
2022-08-10T04:22:51.914Z,15.83
2022-08-10T04:25:22.366Z,17.93
2022-08-10T04:27:52.069Z,17.63
2022-08-10T04:30:21.515Z,16.77
2022-08-10T04:32:54.924Z,17.23
2022-08-10T04:35:27.345Z,18.80
2022-08-10T04:37:58.209Z,17.47
2022-08-10T04:40:30.347Z,17.23
2022-08-10T04:43:12.695Z,16.53
2022-08-10T04:45:49.795Z,17.73
2022-08-10T04:48:42.522Z,16.63
2022-08-10T04:51:17.289Z,17.93
2022-08-10T04:54:04.944Z,17.60
2022-08-10T04:56:37.698Z,18.63
2022-08-10T04:59:07.843Z,18.50
2022-08-10T05:02:09.858Z,17.67
2022-08-10T05:04:36.376Z,18.37
2022-08-10T05:07:16.680Z,19.77
2022-08-10T05:10:03.583Z,18.40
2022-08-10T05:12:35.718Z,19.07
2022-08-10T05:15:10.603Z,18.50
2022-08-10T05:17:40.230Z,18.27
2022-08-10T05:20:13.344Z,18.27
2022-08-10T05:22:44.255Z,18.13
2022-08-10T05:25:17.960Z,18.80
2022-08-10T05:27:48.076Z,18.30
2022-08-10T05:30:18.756Z,20.07
2022-08-10T05:32:57.917Z,19.77
2022-08-10T05:35:51.762Z,18.30
2022-08-10T05:38:24.195Z,18.70
2022-08-10T05:40:53.381Z,18.77
2022-08-10T05:43:24.586Z,19.37
2022-08-10T05:46:16.810Z,19.20
2022-08-10T05:48:56.769Z,19.53
2022-08-10T05:51:29.590Z,19.10
2022-08-10T05:54:06.778Z,20.70
2022-08-10T05:56:54.833Z,20.10
2022-08-10T06:00:33.589Z,18.80
2022-08-10T06:02:33.231Z,18.97
2022-08-10T06:05:09.270Z,19.33
2022-08-10T06:07:41.897Z,19.23
2022-08-10T06:10:32.431Z,18.47
2022-08-10T06:13:26.967Z,19.00
2022-08-10T06:16:02.252Z,18.80
2022-08-10T06:18:31.392Z,18.83
2022-08-10T06:21:00.971Z,18.70
2022-08-10T06:23:31.490Z,20.10
2022-08-10T06:26:10.065Z,18.93
2022-08-10T06:28:58.235Z,20.33
2022-08-10T06:31:47.723Z,20.20
2022-08-10T06:34:33.161Z,19.97
2022-08-10T06:37:04.617Z,19.30
2022-08-10T06:39:35.525Z,19.90
2022-08-10T06:42:16.144Z,20.43
2022-08-10T06:44:55.308Z,19.00
2022-08-10T06:47:30.345Z,19.87
2022-08-10T06:50:08.608Z,20.00
2022-08-10T06:52:39.452Z,19.40
2022-08-10T06:55:18.702Z,19.73
2022-08-10T06:57:59.832Z,19.57
2022-08-10T07:00:34.626Z,19.30
2022-08-10T07:03:10.162Z,20.33
2022-08-10T07:05:47.974Z,18.23
2022-08-10T07:08:21.546Z,18.30
2022-08-10T07:10:51.805Z,18.63
2022-08-10T07:14:15.633Z,19.23
2022-08-10T07:16:16.528Z,18.50
2022-08-10T07:18:47.313Z,19.07
2022-08-10T07:21:20.539Z,18.00
2022-08-10T07:23:56.790Z,18.63
2022-08-10T07:26:31.362Z,18.07
2022-08-10T07:29:05.867Z,16.83
2022-08-10T07:31:55.548Z,17.80
2022-08-10T07:34:29.029Z,16.70
2022-08-10T07:37:02.237Z,17.73
2022-08-10T07:40:02.406Z,18.80
2022-08-10T07:42:31.099Z,18.33
2022-08-10T07:45:03.921Z,16.90
2022-08-10T07:47:52.990Z,17.30
2022-08-10T07:50:33.120Z,17.90
2022-08-10T07:53:07.359Z,16.30
2022-08-10T07:56:03.749Z,17.07
2022-08-10T07:58:31.242Z,17.20
2022-08-10T08:01:05.243Z,16.73
2022-08-10T08:03:39.363Z,16.60
2022-08-10T08:06:12.021Z,16.33
2022-08-10T08:08:44.104Z,18.33
2022-08-10T08:11:26.137Z,17.43
2022-08-10T08:13:58.770Z,16.70
2022-08-10T08:16:30.763Z,16.47
2022-08-10T08:19:25.875Z,16.60
2022-08-10T08:24:11.140Z,16.90
2022-08-10T08:24:42.582Z,15.87
2022-08-10T08:27:15.111Z,17.67
2022-08-10T08:29:47.650Z,16.17
2022-08-10T08:32:22.270Z,17.63
2022-08-10T08:34:54.508Z,16.63
2022-08-10T08:38:31.883Z,16.80
2022-08-10T08:40:17.225Z,16.70
2022-08-10T08:42:59.548Z,16.30
2022-08-10T08:45:51.047Z,16.40
2022-08-10T08:48:46.813Z,17.30
2022-08-10T08:52:09.955Z,17.20
2022-08-10T08:54:25.331Z,17.93
2022-08-10T08:57:05.738Z,16.10
2022-08-10T08:59:54.941Z,16.07
2022-08-10T09:02:41.152Z,15.93
2022-08-10T09:05:24.633Z,16.03
2022-08-10T09:08:23.758Z,16.10
2022-08-10T09:10:59.796Z,16.80
2022-08-10T09:13:34.418Z,16.03
2022-08-10T09:16:22.038Z,15.67
2022-08-10T09:18:54.703Z,15.73
2022-08-10T09:21:43.223Z,15.43
2022-08-10T09:24:30.619Z,15.90
2022-08-10T09:27:08.584Z,16.23
2022-08-10T09:29:48.131Z,15.33
2022-08-10T09:36:20.906Z,15.37
2022-08-10T09:36:25.996Z,15.70
2022-08-10T09:38:25.424Z,15.30
2022-08-10T09:41:12.346Z,16.23
2022-08-10T09:43:53.872Z,15.30
2022-08-10T09:46:35.380Z,15.77
2022-08-10T09:49:16.151Z,16.00
2022-08-10T09:51:54.626Z,15.90
2022-08-10T09:54:35.827Z,15.70
2022-08-10T09:57:44.614Z,15.90
2022-08-10T10:00:12.944Z,15.97
2022-08-10T10:02:52.857Z,15.43
2022-08-10T10:05:39.395Z,14.50
2022-08-10T10:08:26.108Z,15.20
2022-08-10T10:11:04.348Z,15.47
2022-08-10T10:14:03.853Z,15.33
2022-08-10T10:16:45.034Z,15.27
2022-08-10T10:19:40.895Z,15.37
2022-08-10T10:22:26.525Z,15.70
2022-08-10T10:25:21.096Z,15.40
2022-08-10T10:28:02.411Z,15.77
2022-08-10T10:30:45.631Z,15.90
2022-08-10T10:33:19.794Z,15.50
2022-08-10T10:36:04.164Z,15.47
2022-08-10T10:38:41.852Z,15.37
2022-08-10T10:41:22.021Z,15.17
2022-08-10T10:44:10.789Z,15.83
2022-08-10T10:46:53.418Z,15.67
2022-08-10T10:49:42.792Z,15.47
2022-08-10T10:52:23.952Z,15.40
2022-08-10T10:55:04.469Z,15.90
2022-08-10T10:57:58.880Z,15.30
2022-08-10T11:00:40.693Z,16.60
2022-08-10T11:04:07.884Z,16.20
2022-08-10T11:06:51.194Z,15.73
2022-08-10T11:10:06.068Z,16.67
2022-08-10T11:12:21.482Z,16.13
2022-08-10T11:15:07.402Z,16.13
2022-08-10T11:17:47.920Z,16.43
2022-08-10T11:20:24.039Z,16.67
2022-08-10T11:23:02.738Z,16.30
2022-08-10T11:25:33.593Z,16.67
2022-08-10T11:28:12.292Z,15.97
2022-08-10T11:30:46.939Z,15.70
2022-08-10T11:33:30.735Z,16.10
2022-08-10T11:36:04.885Z,16.70
2022-08-10T11:38:57.553Z,16.80
2022-08-10T11:42:08.838Z,16.50
2022-08-10T11:44:35.084Z,16.90
2022-08-10T11:47:11.066Z,16.07
2022-08-10T11:49:50.499Z,16.70
2022-08-10T11:52:27.883Z,16.37
2022-08-10T11:55:00.122Z,15.90
2022-08-10T11:57:53.132Z,15.50
2022-08-10T12:00:20.792Z,15.63
2022-08-10T12:02:55.403Z,15.13
2022-08-10T12:05:53.993Z,15.77
2022-08-10T12:10:08.526Z,15.97
2022-08-10T12:11:23.551Z,16.93
2022-08-10T12:14:20.264Z,16.03
2022-08-10T12:16:52.603Z,16.27
2022-08-10T12:19:29.856Z,15.40
2022-08-10T12:22:25.528Z,15.53
2022-08-10T12:24:58.211Z,15.50
2022-08-10T12:27:37.324Z,15.70
2022-08-10T12:30:08.284Z,15.50
2022-08-10T12:32:45.230Z,14.73
2022-08-10T12:35:26.103Z,15.10
2022-08-10T12:38:08.606Z,14.93
2022-08-10T12:40:46.529Z,15.30
2022-08-10T12:44:07.032Z,15.50
2022-08-10T12:46:16.909Z,14.50
2022-08-10T12:48:53.168Z,14.60
2022-08-10T12:51:26.108Z,15.90
2022-08-10T12:54:03.029Z,14.90
2022-08-10T12:56:39.802Z,15.20
2022-08-10T12:59:12.049Z,15.90
2022-08-10T13:02:09.990Z,15.77
2022-08-10T13:04:37.524Z,16.10
2022-08-10T13:07:07.714Z,16.03
2022-08-10T13:09:56.712Z,15.60
2022-08-10T13:12:36.232Z,15.00
2022-08-10T13:15:45.424Z,15.00
2022-08-10T13:18:05.218Z,15.67
2022-08-10T13:20:38.249Z,15.07
2022-08-10T13:23:17.787Z,15.80
2022-08-10T13:25:49.620Z,15.73
2022-08-10T13:28:37.834Z,15.10
2022-08-10T13:31:16.655Z,14.40
2022-08-10T13:34:39.954Z,15.23
2022-08-10T13:36:43.869Z,16.63
2022-08-10T13:39:14.337Z,15.37
2022-08-10T13:41:47.672Z,15.47
2022-08-10T13:44:21.112Z,16.10
2022-08-10T13:46:54.472Z,15.50
2022-08-10T13:49:23.042Z,15.13
2022-08-10T13:51:58.168Z,15.90
2022-08-10T13:54:30.238Z,15.87
2022-08-10T13:57:01.813Z,16.20
2022-08-10T14:00:35.010Z,16.00
2022-08-10T14:02:29.360Z,15.40
2022-08-10T14:05:02.685Z,14.60
2022-08-10T14:07:35.388Z,15.07
2022-08-10T14:10:08.039Z,15.33
2022-08-10T14:12:44.857Z,14.73
2022-08-10T14:15:16.042Z,15.27
2022-08-10T14:17:46.753Z,14.07
2022-08-10T14:20:21.354Z,13.60
2022-08-10T14:22:50.484Z,14.30
2022-08-10T14:25:18.686Z,14.50
2022-08-10T14:28:03.583Z,14.33
2022-08-10T14:30:36.100Z,13.90
2022-08-10T14:33:09.475Z,14.03
2022-08-10T14:36:20.245Z,14.07
2022-08-10T14:38:40.298Z,14.37
2022-08-10T14:42:03.105Z,14.40
2022-08-10T14:44:12.579Z,13.57
2022-08-10T14:46:46.302Z,14.20
2022-08-10T14:49:26.599Z,14.30
2022-08-10T14:52:01.343Z,14.77
2022-08-10T14:54:32.398Z,13.60
2022-08-10T14:57:10.897Z,15.43
2022-08-10T15:00:26.152Z,14.67
2022-08-10T15:02:56.039Z,14.70
2022-08-10T15:05:41.735Z,14.73
2022-08-10T15:08:14.552Z,14.90
2022-08-10T15:10:48.484Z,14.83
2022-08-10T15:13:34.815Z,15.17
2022-08-10T15:16:13.136Z,14.40
2022-08-10T15:18:57.493Z,14.00
2022-08-10T15:21:42.387Z,14.93
2022-08-10T15:24:36.520Z,14.20
2022-08-10T15:27:08.625Z,14.80
2022-08-10T15:29:56.641Z,16.93
2022-08-10T15:32:54.296Z,14.77
2022-08-10T15:35:45.281Z,14.37
2022-08-10T15:38:18.513Z,13.60
2022-08-10T15:40:53.832Z,14.17
2022-08-10T15:43:28.280Z,14.33
2022-08-10T15:46:15.699Z,14.10
2022-08-10T15:49:03.508Z,14.60
2022-08-10T15:51:53.861Z,14.40
2022-08-10T15:54:33.737Z,14.30
2022-08-10T15:57:05.085Z,13.90
2022-08-10T15:59:39.938Z,14.60
2022-08-10T16:02:17.860Z,14.73
2022-08-10T16:04:53.285Z,13.57
2022-08-10T16:07:46.297Z,14.10
2022-08-10T16:10:28.574Z,14.27
2022-08-10T16:13:02.262Z,13.20
2022-08-10T16:15:55.412Z,13.67
2022-08-10T16:18:27.498Z,14.27
2022-08-10T16:21:00.718Z,14.87
2022-08-10T16:23:34.408Z,13.80
2022-08-10T16:26:13.596Z,14.37
2022-08-10T16:28:46.835Z,15.80
2022-08-10T16:31:20.723Z,14.43
2022-08-10T16:33:54.032Z,14.60
2022-08-10T16:36:33.080Z,14.40
2022-08-10T16:39:02.157Z,14.67
2022-08-10T16:42:03.354Z,13.90
2022-08-10T16:44:23.912Z,13.57
2022-08-10T16:46:52.775Z,14.10
2022-08-10T16:49:22.407Z,14.60
2022-08-10T16:51:53.425Z,13.90
2022-08-10T16:54:27.505Z,14.97
2022-08-10T16:57:01.940Z,14.13
2022-08-10T16:59:33.413Z,14.77
2022-08-10T17:02:03.233Z,14.00
2022-08-10T17:04:32.967Z,14.10
2022-08-10T17:07:09.287Z,14.90
2022-08-10T17:09:39.915Z,15.10
2022-08-10T17:12:11.743Z,14.57
2022-08-10T17:14:42.265Z,14.30
2022-08-10T17:17:18.829Z,15.10
2022-08-10T17:19:50.266Z,15.07
2022-08-10T17:22:25.629Z,15.17
2022-08-10T17:25:00.948Z,14.77
2022-08-10T17:28:05.073Z,15.67
2022-08-10T17:30:34.093Z,14.83
2022-08-10T17:33:06.721Z,14.60
2022-08-10T17:35:38.203Z,14.80
2022-08-10T17:38:11.115Z,14.97
2022-08-10T17:40:48.400Z,14.90
2022-08-10T17:43:58.403Z,15.20
2022-08-10T17:46:14.484Z,16.47
2022-08-10T17:48:43.645Z,15.70
2022-08-10T17:51:15.037Z,18.00
2022-08-10T17:53:47.833Z,15.40
2022-08-10T17:56:17.850Z,15.20
2022-08-10T17:58:50.092Z,15.60
2022-08-10T18:01:41.435Z,15.50
2022-08-10T18:04:15.887Z,17.03
2022-08-10T18:06:45.146Z,19.07
2022-08-10T18:09:28.102Z,17.97
2022-08-10T18:12:02.706Z,15.93
2022-08-10T18:14:44.079Z,15.13
2022-08-10T18:17:16.066Z,15.10
2022-08-10T18:19:48.471Z,14.47
2022-08-10T18:22:17.287Z,15.43
2022-08-10T18:24:48.654Z,15.67
2022-08-10T18:27:18.462Z,14.70
2022-08-10T18:29:50.695Z,14.50
2022-08-10T18:32:21.505Z,14.83
2022-08-10T18:34:53.649Z,14.60
2022-08-10T18:37:24.686Z,14.37
2022-08-10T18:39:59.802Z,15.20
2022-08-10T18:42:35.307Z,14.67
2022-08-10T18:45:09.842Z,14.27
2022-08-10T18:47:58.426Z,15.17
2022-08-10T18:50:32.079Z,15.40
2022-08-10T18:53:15.295Z,15.13
2022-08-10T18:56:08.442Z,16.00
2022-08-10T18:59:02.738Z,15.87
2022-08-10T19:01:45.153Z,15.80
2022-08-10T19:04:37.184Z,15.07
2022-08-10T19:07:31.684Z,15.27
2022-08-10T19:10:15.554Z,15.07
2022-08-10T19:12:56.002Z,15.20
2022-08-10T19:15:30.724Z,14.50
2022-08-10T19:18:20.892Z,15.13
2022-08-10T19:20:55.098Z,15.20
2022-08-10T19:23:40.726Z,17.07
2022-08-10T19:26:44.965Z,15.97
2022-08-10T19:30:10.269Z,15.30
2022-08-10T19:32:28.859Z,16.47
2022-08-10T19:35:07.607Z,16.10
2022-08-10T19:37:42.293Z,16.27
2022-08-10T19:40:43.927Z,17.63
2022-08-10T19:43:20.684Z,15.70
2022-08-10T19:46:15.147Z,15.90
2022-08-10T19:48:49.043Z,16.20
2022-08-10T19:51:24.006Z,16.30
2022-08-10T19:54:00.556Z,16.57
2022-08-10T19:56:40.455Z,15.70
2022-08-10T20:00:17.140Z,15.93
2022-08-10T20:02:12.310Z,16.57
2022-08-10T20:04:54.388Z,16.50
2022-08-10T20:07:34.007Z,15.70
2022-08-10T20:10:11.971Z,15.73
2022-08-10T20:12:47.158Z,15.17
2022-08-10T20:15:26.851Z,15.00
2022-08-10T20:18:00.891Z,14.80
2022-08-10T20:20:36.194Z,15.83
2022-08-10T20:23:15.166Z,15.27
2022-08-10T20:25:47.982Z,15.53
2022-08-10T20:28:21.140Z,16.07
2022-08-10T20:30:54.220Z,15.67
2022-08-10T20:33:34.209Z,16.00
2022-08-10T20:36:09.518Z,16.00
2022-08-10T20:38:45.198Z,15.80
2022-08-10T20:41:22.943Z,16.33
2022-08-10T20:44:04.787Z,14.87
2022-08-10T20:46:41.250Z,15.03
2022-08-10T20:49:23.565Z,15.30
2022-08-10T20:51:59.330Z,15.10
2022-08-10T20:54:33.124Z,15.33
2022-08-10T20:57:54.586Z,14.97
2022-08-10T21:00:10.767Z,15.37
2022-08-10T21:02:55.753Z,15.00
2022-08-10T21:05:32.086Z,14.53
2022-08-10T21:08:11.620Z,15.97
2022-08-10T21:10:57.651Z,14.57
2022-08-10T21:13:44.411Z,15.67
2022-08-10T21:16:29.799Z,15.67
2022-08-10T21:19:23.913Z,14.50
2022-08-10T21:22:10.710Z,15.60
2022-08-10T21:24:45.717Z,15.30
2022-08-10T21:27:28.090Z,15.30
2022-08-10T21:30:13.837Z,14.90
2022-08-10T21:32:50.620Z,14.80
2022-08-10T21:35:36.682Z,14.93
2022-08-10T21:38:26.583Z,16.10
2022-08-10T21:41:56.593Z,15.47
2022-08-10T21:45:04.323Z,15.70
2022-08-10T21:48:17.115Z,15.30
2022-08-10T21:51:10.228Z,15.50
2022-08-10T21:54:12.785Z,14.80
2022-08-10T21:57:05.704Z,14.60
2022-08-10T21:59:58.572Z,16.17
2022-08-10T22:02:50.341Z,15.73
2022-08-10T22:05:42.696Z,15.80
2022-08-10T22:08:32.139Z,19.20
2022-08-10T22:11:25.478Z,14.90
2022-08-10T22:14:12.573Z,16.07
2022-08-10T22:17:07.236Z,15.10
2022-08-10T22:20:18.690Z,14.83
2022-08-10T22:23:29.160Z,14.70
2022-08-10T22:26:28.996Z,15.00
2022-08-10T22:29:18.887Z,15.43
2022-08-10T22:32:17.775Z,14.77
2022-08-10T22:35:15.919Z,15.00
2022-08-10T22:38:13.511Z,14.53
2022-08-10T22:41:03.164Z,14.97
2022-08-10T22:43:52.980Z,15.07
2022-08-10T22:46:44.784Z,15.50
2022-08-10T22:49:12.263Z,15.77
2022-08-10T22:51:54.567Z,15.20
2022-08-10T22:54:45.277Z,14.87
2022-08-10T22:57:34.380Z,15.67
2022-08-10T23:00:15.189Z,15.80
2022-08-10T23:02:54.371Z,15.50
2022-08-10T23:05:30.399Z,15.83
2022-08-10T23:08:05.208Z,15.57
2022-08-10T23:10:40.028Z,14.53
2022-08-10T23:13:13.199Z,15.40
2022-08-10T23:16:16.456Z,15.33
2022-08-10T23:19:08.347Z,15.40
2022-08-10T23:22:04.643Z,15.73
2022-08-10T23:24:37.191Z,15.13
2022-08-10T23:27:12.355Z,15.03
2022-08-10T23:30:09.455Z,15.47
2022-08-10T23:32:35.963Z,16.23
2022-08-10T23:36:31.401Z,15.80
2022-08-10T23:38:02.979Z,15.50
2022-08-10T23:40:32.386Z,15.87
2022-08-10T23:43:01.877Z,15.90
2022-08-10T23:45:52.387Z,15.70
2022-08-10T23:48:25.137Z,16.27
2022-08-10T23:50:59.465Z,15.67
2022-08-10T23:53:31.228Z,16.00
2022-08-10T23:56:02.060Z,16.67
2022-08-10T23:58:36.558Z,16.40
